Time;durP1;ratioP1;P1;durP2;ratioP2;P2;SDS_P1;SDS_P2;PMS_P1;PMS_P2;Temp;Humidity;BMP_temperature;BMP_pressure;BME280_temperature;BME280_humidity;BME280_pressure;Samples;Min_cycle;Max_cycle;Signal;HPM_P1;HPM_P2
2022/03/09 00:01:50;;;;;;;0.10;0.10;;;;;;;;;;4979425;28;20073;-90
2022/03/09 00:04:16;;;;;;;0.10;0.10;;;;;;;;;;4979329;28;20104;-90
2022/03/09 00:06:42;;;;;;;0.10;0.10;;;;;;;;;;4995671;28;20061;-89
2022/03/09 00:09:10;;;;;;;0.10;0.10;;;;;;;;;;4979757;28;20050;-90
2022/03/09 00:11:36;;;;;;;0.10;0.10;;;;;;;;;;4979725;28;20045;-90
2022/03/09 00:14:02;;;;;;;0.10;0.10;;;;;;;;;;4979296;28;20041;-90
2022/03/09 00:16:28;;;;;;;0.10;0.10;;;;;;;;;;4979552;28;20108;-90
2022/03/09 00:18:54;;;;;;;0.10;0.10;;;;;;;;;;4979318;28;20042;-90
2022/03/09 00:21:20;;;;;;;0.10;0.10;;;;;;;;;;5011636;28;20040;-89
2022/03/09 00:23:46;;;;;;;0.10;0.10;;;;;;;;;;4995480;28;20091;-89
2022/03/09 00:26:12;;;;;;;0.10;0.10;;;;;;;;;;4995351;28;20088;-90
2022/03/09 00:28:38;;;;;;;0.10;0.10;;;;;;;;;;4995258;28;20038;-89
2022/03/09 00:31:04;;;;;;;0.10;0.10;;;;;;;;;;5011381;28;20499;-89
2022/03/09 00:33:30;;;;;;;0.10;0.10;;;;;;;;;;4978995;28;20042;-90
2022/03/09 00:35:56;;;;;;;0.10;0.10;;;;;;;;;;4979018;28;20038;-90
2022/03/09 00:38:22;;;;;;;0.10;0.10;;;;;;;;;;5011394;28;20149;-89
2022/03/09 00:40:50;;;;;;;0.10;0.10;;;;;;;;;;4979295;28;20042;-90
2022/03/09 00:43:16;;;;;;;0.10;0.10;;;;;;;;;;4979720;28;20042;-90
2022/03/09 00:45:42;;;;;;;0.10;0.10;;;;;;;;;;4978933;28;20047;-90
2022/03/09 00:48:08;;;;;;;0.10;0.10;;;;;;;;;;4994939;28;20068;-90
2022/03/09 00:50:34;;;;;;;0.10;0.10;;;;;;;;;;4995280;28;20128;-90
2022/03/09 00:52:59;;;;;;;0.10;0.10;;;;;;;;;;4995485;28;20049;-90
2022/03/09 00:55:25;;;;;;;0.10;0.10;;;;;;;;;;4995391;28;20089;-89
2022/03/09 00:57:51;;;;;;;0.10;0.10;;;;;;;;;;4978784;28;20482;-90
2022/03/09 01:00:17;;;;;;;0.10;0.10;;;;;;;;;;4979178;28;20046;-90
2022/03/09 01:02:44;;;;;;;0.10;0.10;;;;;;;;;;5011825;28;20088;-91
2022/03/09 01:05:10;;;;;;;0.10;0.10;;;;;;;;;;4995237;28;20068;-91
2022/03/09 01:07:36;;;;;;;0.10;0.10;;;;;;;;;;4995362;28;20554;-90
2022/03/09 01:10:01;;;;;;;0.10;0.10;;;;;;;;;;4995197;28;20065;-90
2022/03/09 01:12:27;;;;;;;0.10;0.10;;;;;;;;;;4978897;28;20053;-90
2022/03/09 01:14:55;;;;;;;0.10;0.10;;;;;;;;;;4995018;28;20117;-91
2022/03/09 01:17:21;;;;;;;0.10;0.10;;;;;;;;;;5011642;28;20331;-90
2022/03/09 01:19:47;;;;;;;0.10;0.10;;;;;;;;;;4978872;28;20046;-90
2022/03/09 01:22:13;;;;;;;0.10;0.10;;;;;;;;;;4979469;28;20042;-90
2022/03/09 01:24:39;;;;;;;0.10;0.10;;;;;;;;;;4979225;28;20121;-91
2022/03/09 01:27:05;;;;;;;0.10;0.10;;;;;;;;;;4978971;28;20041;-90
2022/03/09 01:29:30;;;;;;;0.10;0.10;;;;;;;;;;4978831;28;20052;-90
2022/03/09 01:31:56;;;;;;;0.10;0.10;;;;;;;;;;4995560;28;20553;-91
2022/03/09 01:34:22;;;;;;;0.10;0.10;;;;;;;;;;4998724;28;20050;-90
2022/03/09 01:36:48;;;;;;;0.10;0.10;;;;;;;;;;5015051;28;20073;-90
2022/03/09 01:39:14;;;;;;;0.10;0.10;;;;;;;;;;4982481;28;20041;-90
2022/03/09 01:41:40;;;;;;;0.80;0.30;;;;;;;;;;4998505;28;20095;-90
2022/03/09 01:44:09;;;;;;;0.10;0.10;;;;;;;;;;4982272;28;20045;-90
2022/03/09 01:46:35;;;;;;;0.10;0.10;;;;;;;;;;5014479;28;20068;-90
2022/03/09 01:49:01;;;;;;;0.20;0.20;;;;;;;;;;4997948;28;20394;-90
2022/03/09 01:51:27;;;;;;;0.10;0.10;;;;;;;;;;4998045;28;20103;-89
2022/03/09 01:53:53;;;;;;;0.10;0.10;;;;;;;;;;4998136;28;20492;-90
2022/03/09 01:56:19;;;;;;;0.10;0.10;;;;;;;;;;4981895;28;20385;-90
2022/03/09 01:58:45;;;;;;;0.10;0.10;;;;;;;;;;4998044;28;20485;-90
2022/03/09 02:01:11;;;;;;;0.10;0.10;;;;;;;;;;4981592;28;20065;-90
2022/03/09 02:03:37;;;;;;;0.10;0.10;;;;;;;;;;4981391;28;20096;-90
2022/03/09 02:06:03;;;;;;;0.10;0.10;;;;;;;;;;4997865;28;20038;-90
2022/03/09 02:11:14;;;;;;;0.10;0.10;;;;;;;;;;5013826;28;20058;-88
2022/03/09 02:13:40;;;;;;;0.10;0.10;;;;;;;;;;4997293;28;20104;-89
2022/03/09 02:16:06;;;;;;;0.10;0.10;;;;;;;;;;4997103;28;20064;-88
2022/03/09 02:18:32;;;;;;;0.10;0.10;;;;;;;;;;4980994;28;20042;-88
2022/03/09 02:21:02;;;;;;;0.10;0.10;;;;;;;;;;4981015;28;20100;-88
2022/03/09 02:23:28;;;;;;;0.10;0.10;;;;;;;;;;4997223;28;20037;-88
2022/03/09 02:25:54;;;;;;;0.10;0.10;;;;;;;;;;4980942;28;20464;-88
2022/03/09 02:28:20;;;;;;;0.10;0.10;;;;;;;;;;4981235;28;20081;-88
2022/03/09 02:30:45;;;;;;;0.10;0.10;;;;;;;;;;5013543;28;20046;-88
2022/03/09 02:33:11;;;;;;;0.10;0.10;;;;;;;;;;4981106;28;20072;-88
2022/03/09 02:35:37;;;;;;;0.10;0.10;;;;;;;;;;4997204;28;20061;-88
2022/03/09 02:38:03;;;;;;;0.10;0.10;;;;;;;;;;4980767;28;20046;-88
2022/03/09 02:40:29;;;;;;;0.10;0.10;;;;;;;;;;4997106;28;20046;-88
2022/03/09 02:42:55;;;;;;;0.10;0.10;;;;;;;;;;4996996;28;20044;-88
2022/03/09 02:45:21;;;;;;;0.10;0.10;;;;;;;;;;4995664;28;20463;-88
2022/03/09 02:47:47;;;;;;;0.10;0.10;;;;;;;;;;4996569;28;20066;-88
2022/03/09 02:50:13;;;;;;;0.10;0.10;;;;;;;;;;4996628;28;20053;-89
2022/03/09 02:52:40;;;;;;;0.10;0.10;;;;;;;;;;4996846;28;20103;-88
2022/03/09 02:55:06;;;;;;;0.10;0.10;;;;;;;;;;4980550;28;20405;-88
2022/03/09 02:57:32;;;;;;;0.10;0.10;;;;;;;;;;4996818;28;20393;-89
2022/03/09 02:59:58;;;;;;;0.10;0.10;;;;;;;;;;4996370;28;20037;-88
2022/03/09 03:02:24;;;;;;;0.10;0.10;;;;;;;;;;5012645;28;20474;-88
2022/03/09 03:04:50;;;;;;;0.10;0.10;;;;;;;;;;4980307;28;20045;-88
2022/03/09 03:07:16;;;;;;;0.08;0.08;;;;;;;;;;5012531;28;20038;-88
2022/03/09 03:09:42;;;;;;;0.10;0.10;;;;;;;;;;4979950;28;20103;-88
2022/03/09 03:12:08;;;;;;;0.10;0.10;;;;;;;;;;4979988;28;20046;-88
2022/03/09 03:14:34;;;;;;;0.10;0.10;;;;;;;;;;4996094;28;20044;-88
2022/03/09 03:17:00;;;;;;;0.10;0.10;;;;;;;;;;5012250;28;20046;-88
2022/03/09 03:19:26;;;;;;;0.10;0.10;;;;;;;;;;5012216;28;20049;-90
2022/03/09 03:21:52;;;;;;;0.20;0.20;;;;;;;;;;4996752;28;20121;-90
2022/03/09 03:24:18;;;;;;;0.10;0.10;;;;;;;;;;4980480;28;20034;-90
2022/03/09 03:26:44;;;;;;;0.10;0.10;;;;;;;;;;4996318;28;20069;-90
2022/03/09 03:29:10;;;;;;;0.10;0.10;;;;;;;;;;4980213;28;20065;-90
2022/03/09 03:31:36;;;;;;;0.22;0.22;;;;;;;;;;4980305;28;20045;-89
2022/03/09 03:34:02;;;;;;;0.10;0.10;;;;;;;;;;4980077;28;20041;-89
2022/03/09 03:36:29;;;;;;;0.10;0.10;;;;;;;;;;4995887;28;20042;-90
2022/03/09 03:38:55;;;;;;;0.10;0.10;;;;;;;;;;4995809;28;20037;-89
2022/03/09 03:41:21;;;;;;;0.32;0.15;;;;;;;;;;4995903;28;20397;-89
2022/03/09 03:43:47;;;;;;;0.10;0.10;;;;;;;;;;4979582;28;20045;-89
2022/03/09 03:46:13;;;;;;;0.10;0.10;;;;;;;;;;4995552;28;20485;-90
2022/03/09 03:48:39;;;;;;;0.10;0.10;;;;;;;;;;4995700;28;20058;-90
2022/03/09 03:51:05;;;;;;;0.10;0.10;;;;;;;;;;4995961;28;20332;-90
2022/03/09 03:53:31;;;;;;;0.10;0.10;;;;;;;;;;4996007;28;20056;-90
2022/03/09 03:55:57;;;;;;;0.10;0.10;;;;;;;;;;5011981;28;20045;-89
2022/03/09 03:58:23;;;;;;;0.10;0.10;;;;;;;;;;4979485;28;20042;-90
2022/03/09 04:00:49;;;;;;;0.03;0.03;;;;;;;;;;5011745;28;20493;-90
2022/03/09 04:03:15;;;;;;;0.10;0.10;;;;;;;;;;4979334;28;20481;-89
2022/03/09 04:05:41;;;;;;;0.20;0.20;;;;;;;;;;4995372;28;20405;-90
2022/03/09 04:08:07;;;;;;;0.10;0.10;;;;;;;;;;4979131;28;20096;-90
2022/03/09 04:10:33;;;;;;;0.10;0.10;;;;;;;;;;4995291;28;20477;-89
2022/03/09 04:13:00;;;;;;;0.10;0.10;;;;;;;;;;4995583;28;20211;-89
2022/03/09 04:15:27;;;;;;;0.10;0.10;;;;;;;;;;4979361;28;20046;-89
2022/03/09 04:17:53;;;;;;;0.10;0.10;;;;;;;;;;4995605;28;20046;-89
2022/03/09 04:20:19;;;;;;;0.20;0.20;;;;;;;;;;4979207;28;20498;-89
2022/03/09 04:22:45;;;;;;;0.10;0.10;;;;;;;;;;4995395;28;20042;-89
2022/03/09 04:25:11;;;;;;;0.20;0.20;;;;;;;;;;4995049;28;20054;-89
2022/03/09 04:27:37;;;;;;;0.10;0.10;;;;;;;;;;4979130;28;20041;-90
2022/03/09 04:30:03;;;;;;;0.10;0.10;;;;;;;;;;4979031;28;20044;-89
2022/03/09 04:32:29;;;;;;;0.10;0.10;;;;;;;;;;4978750;28;20091;-89
2022/03/09 04:34:55;;;;;;;0.10;0.10;;;;;;;;;;5011342;28;20049;-88
2022/03/09 04:37:21;;;;;;;0.10;0.10;;;;;;;;;;4995235;28;20033;-88
2022/03/09 04:39:47;;;;;;;0.10;0.10;;;;;;;;;;4994746;28;20046;-89
2022/03/09 04:42:14;;;;;;;0.10;0.10;;;;;;;;;;5011232;28;20398;-89
2022/03/09 04:44:40;;;;;;;0.10;0.10;;;;;;;;;;4978964;28;20037;-90
2022/03/09 04:47:06;;;;;;;0.10;0.10;;;;;;;;;;4995379;28;20054;-91
2022/03/09 04:49:32;;;;;;;0.10;0.10;;;;;;;;;;4995637;28;20081;-90
2022/03/09 04:51:58;;;;;;;0.10;0.10;;;;;;;;;;4995022;28;20046;-89
2022/03/09 04:54:23;;;;;;;0.10;0.10;;;;;;;;;;4994876;28;20038;-89
2022/03/09 04:56:49;;;;;;;0.10;0.10;;;;;;;;;;4978658;28;20080;-89
2022/03/09 04:59:17;;;;;;;0.10;0.10;;;;;;;;;;4978892;28;20042;-90
2022/03/09 05:01:43;;;;;;;0.10;0.10;;;;;;;;;;4995221;28;20122;-90
2022/03/09 05:04:08;;;;;;;0.10;0.10;;;;;;;;;;4979253;28;20073;-89
2022/03/09 05:06:35;;;;;;;0.10;0.10;;;;;;;;;;4978511;28;20034;-89
2022/03/09 05:09:01;;;;;;;0.10;0.10;;;;;;;;;;4998231;28;20038;-90
2022/03/09 05:11:26;;;;;;;0.10;0.10;;;;;;;;;;4983075;28;20060;-90
2022/03/09 05:13:52;;;;;;;0.13;0.13;;;;;;;;;;4982525;28;20052;-90
2022/03/09 05:16:18;;;;;;;0.10;0.10;;;;;;;;;;4982466;28;20571;-89
2022/03/09 05:18:44;;;;;;;0.10;0.10;;;;;;;;;;4998156;28;20508;-88
2022/03/09 05:21:10;;;;;;;0.10;0.10;;;;;;;;;;5014507;28;20034;-88
2022/03/09 05:23:36;;;;;;;0.10;0.10;;;;;;;;;;4982014;28;20034;-88
2022/03/09 05:26:02;;;;;;;0.10;0.10;;;;;;;;;;4981783;28;20050;-89
2022/03/09 05:28:28;;;;;;;0.10;0.10;;;;;;;;;;4998214;28;20046;-89
2022/03/09 05:30:54;;;;;;;0.10;0.10;;;;;;;;;;4982235;28;20038;-89
2022/03/09 05:33:20;;;;;;;0.10;0.10;;;;;;;;;;4982000;28;20046;-89
2022/03/09 05:35:46;;;;;;;0.08;0.08;;;;;;;;;;4981681;28;20041;-90
2022/03/09 05:38:12;;;;;;;0.10;0.10;;;;;;;;;;4981798;28;20042;-90
2022/03/09 05:40:38;;;;;;;0.10;0.10;;;;;;;;;;5014299;28;20041;-90
2022/03/09 05:43:04;;;;;;;0.10;0.10;;;;;;;;;;4998164;28;20397;-89
2022/03/09 05:45:30;;;;;;;0.10;0.10;;;;;;;;;;4998165;28;20034;-89
2022/03/09 05:47:56;;;;;;;0.13;0.13;;;;;;;;;;4997782;28;20117;-89
2022/03/09 05:50:22;;;;;;;0.10;0.10;;;;;;;;;;4981893;28;20048;-90
2022/03/09 05:52:48;;;;;;;0.10;0.10;;;;;;;;;;4998068;28;20069;-90
2022/03/09 05:55:14;;;;;;;0.10;0.10;;;;;;;;;;4981696;28;20037;-89
2022/03/09 05:57:40;;;;;;;0.10;0.10;;;;;;;;;;4981804;28;20060;-89
2022/03/09 06:00:07;;;;;;;0.10;0.10;;;;;;;;;;4981792;28;20034;-89
2022/03/09 06:02:33;;;;;;;0.10;0.10;;;;;;;;;;4981720;28;20559;-89
2022/03/09 06:04:59;;;;;;;0.10;0.10;;;;;;;;;;4998180;28;20073;-90
2022/03/09 06:07:25;;;;;;;0.10;0.10;;;;;;;;;;4981976;28;20044;-90
2022/03/09 06:09:51;;;;;;;0.10;0.10;;;;;;;;;;4997753;28;20495;-90
2022/03/09 06:12:17;;;;;;;0.10;0.10;;;;;;;;;;4997641;28;20495;-89
2022/03/09 06:14:44;;;;;;;0.10;0.10;;;;;;;;;;4997668;28;20046;-89
2022/03/09 06:17:10;;;;;;;0.10;0.10;;;;;;;;;;4981538;28;20038;-89
2022/03/09 06:19:35;;;;;;;0.10;0.10;;;;;;;;;;4997238;28;20042;-89
2022/03/09 06:22:01;;;;;;;0.10;0.10;;;;;;;;;;4997288;28;20045;-89
2022/03/09 06:24:27;;;;;;;0.10;0.10;;;;;;;;;;5013371;28;20180;-89
2022/03/09 06:26:54;;;;;;;0.10;0.10;;;;;;;;;;5013262;28;20041;-89
2022/03/09 06:29:20;;;;;;;0.10;0.10;;;;;;;;;;4980980;28;20046;-89
2022/03/09 06:31:46;;;;;;;0.10;0.10;;;;;;;;;;4997258;28;20041;-89
2022/03/09 06:34:12;;;;;;;0.10;0.10;;;;;;;;;;5013351;28;20041;-90
2022/03/09 06:36:43;;;;;;;0.10;0.10;;;;;;;;;;4997203;28;20038;-90
2022/03/09 06:39:09;;;;;;;0.10;0.10;;;;;;;;;;4981741;28;20049;-95
2022/03/09 06:41:35;;;;;;;0.10;0.10;;;;;;;;;;4981898;28;20104;-93
2022/03/09 06:44:01;;;;;;;0.10;0.10;;;;;;;;;;4998328;28;20069;-91
2022/03/09 06:46:27;;;;;;;0.10;0.10;;;;;;;;;;4997768;28;20069;-91
2022/03/09 06:48:53;;;;;;;0.10;0.10;;;;;;;;;;4997155;28;20128;-90
2022/03/09 06:51:19;;;;;;;0.10;0.10;;;;;;;;;;4997151;28;20042;-90
2022/03/09 06:53:45;;;;;;;0.40;0.40;;;;;;;;;;4981137;28;20096;-90
2022/03/09 06:56:11;;;;;;;0.10;0.10;;;;;;;;;;5013075;28;20050;-90
2022/03/09 06:58:38;;;;;;;0.10;0.10;;;;;;;;;;4996894;28;20105;-90
2022/03/09 07:01:04;;;;;;;0.10;0.10;;;;;;;;;;4980721;28;20092;-92
2022/03/09 07:03:30;;;;;;;0.10;0.10;;;;;;;;;;4997705;28;20037;-91
2022/03/09 07:05:56;;;;;;;0.10;0.10;;;;;;;;;;4981423;28;20101;-92
2022/03/09 07:08:22;;;;;;;0.10;0.10;;;;;;;;;;4981168;28;20044;-92
2022/03/09 07:10:48;;;;;;;0.10;0.10;;;;;;;;;;4981514;28;20046;-91
2022/03/09 07:13:14;;;;;;;0.28;0.28;;;;;;;;;;4980878;28;20053;-91
2022/03/09 07:15:40;;;;;;;0.10;0.10;;;;;;;;;;4981384;28;20041;-90
2022/03/09 07:18:06;;;;;;;0.10;0.10;;;;;;;;;;4980548;28;20052;-92
2022/03/09 07:20:32;;;;;;;0.10;0.10;;;;;;;;;;4980753;28;20404;-91
2022/03/09 07:22:58;;;;;;;0.10;0.10;;;;;;;;;;4981113;28;20101;-91
2022/03/09 07:25:24;;;;;;;0.10;0.10;;;;;;;;;;4980913;28;20064;-91
2022/03/09 07:27:50;;;;;;;0.10;0.10;;;;;;;;;;4996663;28;20034;-90
2022/03/09 07:30:16;;;;;;;0.10;0.10;;;;;;;;;;4985911;28;20126;-89
2022/03/09 07:32:42;;;;;;;0.35;0.32;;;;;;;;;;4976504;28;20042;-89
2022/03/09 07:35:09;;;;;;;0.20;0.20;;;;;;;;;;4995508;28;20041;-90
2022/03/09 07:37:34;;;;;;;0.13;0.13;;;;;;;;;;5012071;28;20045;-89
2022/03/09 07:40:00;;;;;;;0.10;0.10;;;;;;;;;;4992953;28;20042;-90
2022/03/09 07:42:28;;;;;;;0.10;0.10;;;;;;;;;;4960395;28;20035;-89
2022/03/09 07:44:54;;;;;;;0.10;0.10;;;;;;;;;;4976359;28;20091;-88
2022/03/09 07:47:20;;;;;;;0.17;0.17;;;;;;;;;;4976389;28;20054;-88
2022/03/09 07:49:46;;;;;;;0.10;0.10;;;;;;;;;;5011698;28;20046;-88
2022/03/09 07:52:12;;;;;;;0.10;0.10;;;;;;;;;;4979374;28;20513;-88
2022/03/09 07:54:38;;;;;;;0.10;0.10;;;;;;;;;;4995365;28;20053;-89
2022/03/09 07:57:04;;;;;;;0.10;0.10;;;;;;;;;;4995435;28;20041;-89
2022/03/09 07:59:30;;;;;;;0.10;0.10;;;;;;;;;;4995287;28;20042;-88
2022/03/09 08:01:56;;;;;;;0.63;0.63;;;;;;;;;;5011625;28;20048;-87
2022/03/09 08:04:22;;;;;;;0.10;0.10;;;;;;;;;;5004739;28;20092;-88
2022/03/09 08:06:48;;;;;;;0.10;0.10;;;;;;;;;;4975808;28;20082;-88
2022/03/09 08:09:14;;;;;;;0.10;0.10;;;;;;;;;;4975955;28;20099;-87
2022/03/09 08:11:40;;;;;;;0.10;0.10;;;;;;;;;;4991714;28;20043;-88
2022/03/09 08:14:06;;;;;;;0.10;0.10;;;;;;;;;;4975845;28;20046;-87
2022/03/09 08:16:32;;;;;;;0.10;0.10;;;;;;;;;;4975553;28;20042;-88
2022/03/09 08:18:58;;;;;;;0.10;0.10;;;;;;;;;;4975366;28;20133;-86
2022/03/09 08:21:24;;;;;;;0.20;0.20;;;;;;;;;;4991890;28;20072;-86
2022/03/09 08:23:50;;;;;;;0.10;0.10;;;;;;;;;;4995021;28;20077;-87
2022/03/09 08:26:16;;;;;;;0.10;0.10;;;;;;;;;;4994928;28;20076;-88
2022/03/09 08:28:42;;;;;;;0.20;0.20;;;;;;;;;;4974868;28;20554;-87
2022/03/09 08:31:08;;;;;;;0.30;0.30;;;;;;;;;;4975487;28;20387;-87
2022/03/09 08:33:34;;;;;;;0.20;0.20;;;;;;;;;;4959436;28;20128;-86
2022/03/09 08:36:00;;;;;;;0.20;0.10;;;;;;;;;;4959284;28;20128;-89
2022/03/09 08:38:26;;;;;;;0.13;0.13;;;;;;;;;;4975690;28;20046;-88
2022/03/09 08:40:53;;;;;;;0.30;0.30;;;;;;;;;;4975982;28;20038;-88
2022/03/09 08:43:19;;;;;;;0.20;0.20;;;;;;;;;;4978366;28;20125;-87
2022/03/09 08:45:45;;;;;;;0.10;0.10;;;;;;;;;;4995412;28;20117;-87
2022/03/09 08:48:11;;;;;;;0.15;0.15;;;;;;;;;;4979105;28;20058;-88
2022/03/09 08:50:37;;;;;;;0.10;0.10;;;;;;;;;;4963430;28;20054;-85
2022/03/09 08:53:03;;;;;;;0.10;0.10;;;;;;;;;;4963176;28;20064;-87
2022/03/09 08:55:29;;;;;;;0.20;0.20;;;;;;;;;;4979236;28;20046;-88
2022/03/09 08:57:55;;;;;;;0.10;0.10;;;;;;;;;;4979175;28;20042;-86
2022/03/09 09:00:21;;;;;;;0.60;0.30;;;;;;;;;;4979055;28;20042;-86
2022/03/09 09:02:47;;;;;;;0.20;0.20;;;;;;;;;;4979239;28;20136;-87
2022/03/09 09:05:13;;;;;;;0.17;0.17;;;;;;;;;;4978834;28;20532;-86
2022/03/09 09:07:39;;;;;;;0.55;0.20;;;;;;;;;;4979036;28;20049;-87
2022/03/09 09:10:06;;;;;;;0.10;0.10;;;;;;;;;;4978981;28;20452;-86
2022/03/09 09:12:32;;;;;;;0.10;0.10;;;;;;;;;;4978951;28;20049;-86
2022/03/09 09:14:58;;;;;;;0.10;0.10;;;;;;;;;;4978622;28;20042;-85
2022/03/09 09:17:24;;;;;;;0.43;0.43;;;;;;;;;;4979275;28;20046;-89
2022/03/09 09:19:50;;;;;;;0.57;0.20;;;;;;;;;;4978986;28;20133;-87
2022/03/09 09:22:16;;;;;;;0.13;0.13;;;;;;;;;;4978799;28;20066;-86
2022/03/09 09:24:42;;;;;;;0.10;0.10;;;;;;;;;;4994865;28;20052;-86
2022/03/09 09:27:08;;;;;;;0.10;0.10;;;;;;;;;;4962533;28;20529;-86
2022/03/09 09:29:34;;;;;;;0.20;0.20;;;;;;;;;;4994408;28;20042;-88
2022/03/09 09:32:01;;;;;;;0.20;0.20;;;;;;;;;;4962501;28;20375;-88
2022/03/09 09:34:27;;;;;;;0.13;0.13;;;;;;;;;;4962603;28;20042;-86
2022/03/09 09:36:53;;;;;;;0.10;0.10;;;;;;;;;;4978342;28;20042;-87
2022/03/09 09:39:20;;;;;;;0.10;0.10;;;;;;;;;;4962439;28;20046;-87
2022/03/09 09:41:47;;;;;;;0.38;0.38;;;;;;;;;;4978592;28;20038;-88
2022/03/09 09:44:13;;;;;;;0.10;0.10;;;;;;;;;;4978357;28;20045;-86
2022/03/09 09:46:40;;;;;;;0.10;0.10;;;;;;;;;;4978110;28;20482;-87
2022/03/09 09:49:07;;;;;;;0.52;0.52;;;;;;;;;;4962359;28;20133;-88
2022/03/09 09:51:33;;;;;;;0.10;0.10;;;;;;;;;;4962119;28;20560;-87
2022/03/09 09:53:59;;;;;;;0.10;0.10;;;;;;;;;;4977769;28;20485;-87
2022/03/09 09:56:25;;;;;;;0.50;0.50;;;;;;;;;;4977908;28;20053;-87
2022/03/09 09:58:51;;;;;;;0.20;0.20;;;;;;;;;;4978322;28;20049;-88
2022/03/09 10:01:17;;;;;;;0.10;0.10;;;;;;;;;;4978197;28;20516;-87
2022/03/09 10:03:43;;;;;;;0.20;0.20;;;;;;;;;;4978206;28;20039;-87
2022/03/09 10:06:09;;;;;;;0.10;0.10;;;;;;;;;;4961910;28;20034;-88
2022/03/09 10:08:35;;;;;;;0.10;0.10;;;;;;;;;;4994348;28;20099;-87
2022/03/09 10:11:02;;;;;;;0.85;0.80;;;;;;;;;;4992577;28;20069;-89
2022/03/09 10:13:31;;;;;;;0.15;0.15;;;;;;;;;;4982777;28;20511;-88
2022/03/09 10:16:16;;;;;;;0.10;0.10;;;;;;;;;;5013418;28;20050;-87
2022/03/09 10:18:48;;;;;;;0.13;0.13;;;;;;;;;;4997565;28;20429;-88
2022/03/09 10:21:17;;;;;;;0.38;0.38;;;;;;;;;;4997655;28;20209;-88
2022/03/09 10:23:52;;;;;;;0.10;0.10;;;;;;;;;;4981485;28;20038;-89
2022/03/09 10:26:19;;;;;;;0.10;0.10;;;;;;;;;;4981657;28;20378;-88
2022/03/09 10:29:20;;;;;;;0.10;0.10;;;;;;;;;;4997905;28;20033;-86
2022/03/09 10:31:47;;;;;;;0.20;0.20;;;;;;;;;;4922075;29;20043;-86
2022/03/09 10:34:14;;;;;;;0.10;0.10;;;;;;;;;;4982239;28;20438;-87
2022/03/09 10:36:56;;;;;;;0.15;0.15;;;;;;;;;;4996765;28;20037;-87
2022/03/09 10:39:23;;;;;;;0.10;0.10;;;;;;;;;;4996916;28;20375;-87
2022/03/09 10:41:49;;;;;;;0.10;0.10;;;;;;;;;;4980694;28;20146;-85
2022/03/09 10:44:15;;;;;;;0.35;0.30;;;;;;;;;;4996878;28;20497;-89
2022/03/09 10:46:48;;;;;;;0.22;0.17;;;;;;;;;;4996593;28;20042;-90
2022/03/09 10:49:16;;;;;;;0.10;0.10;;;;;;;;;;4980768;28;20446;-89
2022/03/09 10:51:51;;;;;;;0.40;0.40;;;;;;;;;;4997079;28;20045;-89
2022/03/09 10:54:21;;;;;;;0.10;0.10;;;;;;;;;;4996816;28;20056;-89
2022/03/09 10:56:47;;;;;;;0.10;0.10;;;;;;;;;;5012988;28;20052;-89
2022/03/09 10:59:17;;;;;;;0.10;0.10;;;;;;;;;;4996601;28;20507;-89
2022/03/09 11:02:01;;;;;;;0.10;0.10;;;;;;;;;;4980720;28;20393;-90
2022/03/09 11:04:27;;;;;;;0.20;0.20;;;;;;;;;;4997111;28;20042;-90
2022/03/09 11:06:55;;;;;;;0.20;0.20;;;;;;;;;;4980423;28;20194;-88
2022/03/09 11:09:21;;;;;;;0.30;0.30;;;;;;;;;;4997586;28;20045;-89
2022/03/09 11:11:48;;;;;;;0.20;0.20;;;;;;;;;;4996843;28;20946;-89
2022/03/09 11:14:14;;;;;;;0.40;0.40;;;;;;;;;;4983894;28;20046;-89
2022/03/09 11:16:41;;;;;;;0.95;0.30;;;;;;;;;;5013192;28;20046;-88
2022/03/09 11:19:08;;;;;;;0.20;0.20;;;;;;;;;;4996231;28;20141;-88
2022/03/09 11:21:35;;;;;;;0.20;0.20;;;;;;;;;;4996101;28;20078;-88
2022/03/09 11:24:01;;;;;;;0.10;0.10;;;;;;;;;;4995841;28;20481;-87
2022/03/09 11:26:28;;;;;;;0.43;0.43;;;;;;;;;;4996007;28;20048;-88
2022/03/09 11:29:00;;;;;;;0.30;0.30;;;;;;;;;;4976237;28;20046;-89
2022/03/09 11:31:41;;;;;;;0.77;0.57;;;;;;;;;;5009096;28;20050;-89
2022/03/09 11:34:07;;;;;;;0.30;0.30;;;;;;;;;;5009252;28;20073;-89
2022/03/09 11:36:33;;;;;;;0.10;0.10;;;;;;;;;;5009230;28;20042;-90
2022/03/09 11:39:07;;;;;;;0.10;0.10;;;;;;;;;;5008951;28;20446;-87
2022/03/09 11:41:37;;;;;;;0.28;0.28;;;;;;;;;;4976357;28;20049;-87
2022/03/09 11:44:22;;;;;;;0.10;0.10;;;;;;;;;;5009384;28;20078;-86
2022/03/09 11:47:00;;;;;;;0.20;0.20;;;;;;;;;;4992110;28;20038;-84
2022/03/09 11:49:41;;;;;;;0.10;0.10;;;;;;;;;;4992155;28;20050;-87
2022/03/09 11:52:11;;;;;;;0.30;0.30;;;;;;;;;;4992410;28;20111;-87
2022/03/09 11:54:40;;;;;;;0.20;0.20;;;;;;;;;;5008755;28;20549;-88
2022/03/09 11:57:07;;;;;;;0.20;0.20;;;;;;;;;;4992304;28;20554;-85
2022/03/09 11:59:33;;;;;;;0.20;0.20;;;;;;;;;;4991877;28;20046;-87
2022/03/09 12:02:03;;;;;;;0.10;0.10;;;;;;;;;;4992319;28;20126;-86
2022/03/09 12:04:51;;;;;;;0.10;0.10;;;;;;;;;;4975850;28;20040;-87
2022/03/09 12:07:29;;;;;;;0.10;0.10;;;;;;;;;;4992410;28;20053;-87
2022/03/09 12:09:59;;;;;;;0.50;0.50;;;;;;;;;;4992193;28;20046;-87
2022/03/09 12:12:26;;;;;;;0.40;0.40;;;;;;;;;;5008273;28;20045;-87
2022/03/09 12:15:05;;;;;;;0.10;0.10;;;;;;;;;;4991956;28;20521;-87
2022/03/09 12:17:31;;;;;;;0.10;0.10;;;;;;;;;;4975696;28;20046;-87
2022/03/09 12:20:16;;;;;;;0.10;0.10;;;;;;;;;;5008399;28;20057;-86
2022/03/09 12:22:59;;;;;;;0.20;0.20;;;;;;;;;;4976009;28;20490;-85
2022/03/09 12:25:25;;;;;;;;;;;;;;;;;;4991955;28;20486;-87
2022/03/09 12:27:51;;;;;;;0.10;0.10;;;;;;;;;;4975689;28;20051;-87
2022/03/09 12:30:35;;;;;;;0.20;0.20;;;;;;;;;;5007977;28;20088;-86
2022/03/09 12:33:01;;;;;;;0.10;0.10;;;;;;;;;;4991812;28;20041;-86
2022/03/09 12:35:27;;;;;;;0.10;0.10;;;;;;;;;;4975389;28;20042;-86
2022/03/09 12:37:53;;;;;;;0.30;0.30;;;;;;;;;;4991827;28;20064;-86
2022/03/09 12:40:19;;;;;;;0.20;0.20;;;;;;;;;;5008227;28;20046;-86
2022/03/09 12:42:57;;;;;;;0.10;0.10;;;;;;;;;;5008035;28;20159;-88
2022/03/09 12:45:23;;;;;;;0.20;0.20;;;;;;;;;;4991869;28;20046;-85
2022/03/09 12:47:54;;;;;;;0.30;0.28;;;;;;;;;;4991642;28;20055;-87
2022/03/09 12:50:23;;;;;;;0.40;0.40;;;;;;;;;;4960268;28;20511;-86
2022/03/09 12:52:55;;;;;;;0.25;0.25;;;;;;;;;;5007875;28;20564;-86
2022/03/09 12:55:21;;;;;;;0.10;0.10;;;;;;;;;;4991800;28;20133;-87
2022/03/09 12:57:53;;;;;;;0.20;0.20;;;;;;;;;;5007662;28;20117;-86
2022/03/09 13:00:19;;;;;;;0.10;0.10;;;;;;;;;;5007920;28;20496;-87
2022/03/09 13:02:54;;;;;;;0.20;0.20;;;;;;;;;;5007846;28;20073;-86
2022/03/09 13:05:20;;;;;;;0.20;0.20;;;;;;;;;;5007896;28;20043;-86
2022/03/09 13:07:54;;;;;;;0.40;0.40;;;;;;;;;;4991420;28;20042;-86
2022/03/09 13:10:20;;;;;;;0.30;0.30;;;;;;;;;;4991236;28;20509;-87
2022/03/09 13:12:50;;;;;;;0.20;0.20;;;;;;;;;;5008003;28;20363;-87
2022/03/09 13:15:16;;;;;;;0.10;0.10;;;;;;;;;;5007743;28;20216;-86
2022/03/09 13:17:46;;;;;;;0.10;0.10;;;;;;;;;;5007735;28;20077;-87
2022/03/09 13:20:12;;;;;;;0.60;0.40;;;;;;;;;;5007573;28;20042;-86
2022/03/09 13:22:42;;;;;;;0.20;0.20;;;;;;;;;;5007448;28;20049;-86
2022/03/09 13:25:09;;;;;;;0.30;0.30;;;;;;;;;;4991510;28;20580;-85
2022/03/09 13:27:35;;;;;;;0.28;0.28;;;;;;;;;;4991190;28;20493;-86
2022/03/09 13:30:10;;;;;;;0.20;0.20;;;;;;;;;;4995033;28;20093;-87
2022/03/09 13:32:37;;;;;;;0.10;0.10;;;;;;;;;;4978786;28;20433;-86
2022/03/09 13:35:03;;;;;;;0.10;0.10;;;;;;;;;;4978562;28;20486;-86
2022/03/09 13:37:36;;;;;;;0.50;0.50;;;;;;;;;;5011053;28;20517;-86
2022/03/09 13:40:03;;;;;;;0.10;0.10;;;;;;;;;;4994525;28;20129;-86
2022/03/09 13:42:34;;;;;;;0.20;0.20;;;;;;;;;;4994693;28;20093;-86
2022/03/09 13:45:03;;;;;;;0.40;0.40;;;;;;;;;;4994643;28;20441;-87
2022/03/09 13:47:29;;;;;;;0.10;0.10;;;;;;;;;;5010794;28;20127;-86
2022/03/09 13:49:55;;;;;;;0.25;0.25;;;;;;;;;;5010792;28;20272;-87
2022/03/09 13:52:39;;;;;;;0.10;0.10;;;;;;;;;;5010863;28;20206;-87
2022/03/09 13:55:05;;;;;;;0.10;0.10;;;;;;;;;;5010772;28;20047;-87
2022/03/09 13:57:41;;;;;;;0.17;0.17;;;;;;;;;;5010857;28;20046;-87
2022/03/09 14:00:22;;;;;;;0.68;0.68;;;;;;;;;;4994353;28;20042;-86
2022/03/09 14:02:48;;;;;;;0.57;0.57;;;;;;;;;;4994258;28;20645;-87
2022/03/09 14:05:26;;;;;;;0.30;0.30;;;;;;;;;;5010437;28;20050;-88
2022/03/09 14:07:52;;;;;;;0.15;0.15;;;;;;;;;;5010744;28;20042;-87
2022/03/09 14:10:22;;;;;;;0.20;0.20;;;;;;;;;;4994099;28;20042;-87
2022/03/09 14:12:48;;;;;;;0.10;0.10;;;;;;;;;;4977829;28;20076;-89
2022/03/09 14:15:14;;;;;;;0.10;0.10;;;;;;;;;;5010631;28;20038;-88
2022/03/09 14:17:40;;;;;;;0.10;0.10;;;;;;;;;;5010299;28;20042;-88
2022/03/09 14:20:08;;;;;;;0.10;0.10;;;;;;;;;;4993919;28;20085;-89
2022/03/09 14:22:38;;;;;;;0.47;0.47;;;;;;;;;;4994027;28;20104;-88
2022/03/09 14:25:05;;;;;;;0.38;0.30;;;;;;;;;;4993700;28;20052;-88
2022/03/09 14:27:30;;;;;;;0.10;0.10;;;;;;;;;;4993955;28;20394;-89
2022/03/09 14:29:56;;;;;;;0.13;0.13;;;;;;;;;;5010203;28;20137;-89
2022/03/09 14:32:22;;;;;;;0.25;0.25;;;;;;;;;;5010109;28;20494;-88
2022/03/09 14:34:48;;;;;;;0.10;0.10;;;;;;;;;;4993606;28;20048;-88
2022/03/09 14:37:14;;;;;;;0.10;0.10;;;;;;;;;;4977414;28;20065;-88
2022/03/09 14:39:40;;;;;;;0.10;0.10;;;;;;;;;;4993518;28;20414;-89
2022/03/09 14:42:06;;;;;;;0.10;0.10;;;;;;;;;;4993672;28;20194;-89
2022/03/09 14:44:32;;;;;;;0.20;0.20;;;;;;;;;;5010019;28;20511;-87
2022/03/09 14:46:58;;;;;;;0.10;0.10;;;;;;;;;;4993497;28;20038;-88